aviador You're here:

YWLM Decoded Metar

WILLIAMTOWN ARP in _UNIDENTIFIED
Report Time2018-01-17 18:00:00
UTC Time2018-01-17 18:16:39
Flight Rules vfr VFR
Wind250° at 05 kt
W.Decomp.*RWY 30: 2.3 kt HW 4.4 kt LCW
W.Rank250° ranks 15
Current wind is below 250° avg. (7.3)
Visibility9999 m
Phenomena:N/A
Clouds:N/A
Expected CloudBase > 800 ft AGL from Temp-Dew spread
CeilingNone
Temp14°C (ISA -1)
Dew Point12°C (88% RH)
AAT12.8°C
QNH1019 hPa
Density Alt-98 ft
Elevation30 ft
Report Wrong Elevation
Raw Report
YWLM 171800Z AUTO 25005KT 9999 // NCD 14/12 Q1019 RF00.0/000.0=

Extra information for YWLM:More info

Metar Taf Metar & Taf Last 4 Metars F.Rules Stats Wind Profile Meteogram Temp Stats Airport Information Weather charts Add Link Nearby VenuesMetar ALERT Operation Metar Decoded Social comments